Time;durP1;ratioP1;P1;durP2;ratioP2;P2;SDS_P1;SDS_P2;PMS_P1;PMS_P2;Temp;Humidity;BMP_temperature;BMP_pressure;BME280_temperature;BME280_humidity;BME280_pressure;Samples;Min_cycle;Max_cycle;Signal;HPM_P1;HPM_P2
2022/06/01 00:01:20;;;;;;;23.40;12.20;;;;;;;14.74;53.32;98796.41;105825;1279;111271;-68
2022/06/01 00:03:49;;;;;;;21.50;11.90;;;;;;;14.70;53.49;98798.00;105799;1279;97965;-68
2022/06/01 00:06:17;;;;;;;20.70;11.50;;;;;;;14.66;53.82;98793.76;105728;1279;108353;-68
2022/06/01 00:08:45;;;;;;;22.20;12.20;;;;;;;14.62;53.90;98793.74;105743;1279;96516;-69
2022/06/01 00:11:14;;;;;;;22.70;12.40;;;;;;;14.59;54.06;98790.86;105848;1279;97957;-67
2022/06/01 00:13:42;;;;;;;21.40;11.60;;;;;;;14.57;53.93;98788.51;105818;1278;111596;-69
2022/06/01 00:16:10;;;;;;;22.90;11.60;;;;;;;14.55;54.18;98786.77;105762;1278;95273;-69
2022/06/01 00:18:40;;;;;;;22.60;12.50;;;;;;;14.51;54.29;98786.02;105843;1279;107784;-68
2022/06/01 00:21:08;;;;;;;21.80;12.40;;;;;;;14.49;54.38;98780.18;105772;1279;97877;-69
2022/06/01 00:23:36;;;;;;;24.60;13.30;;;;;;;14.47;54.53;98776.98;105818;1279;97998;-68
2022/06/01 00:26:04;;;;;;;23.80;12.80;;;;;;;14.46;54.59;98776.75;105759;1278;112843;-67
2022/06/01 00:28:33;;;;;;;21.20;12.10;;;;;;;14.46;54.77;98775.13;105772;1279;97988;-67
2022/06/01 00:31:03;;;;;;;22.30;12.60;;;;;;;14.45;54.77;98777.84;105788;1277;107658;-66
2022/06/01 00:33:32;;;;;;;24.30;13.40;;;;;;;14.45;54.93;98783.05;105814;1279;97979;-70
2022/06/01 00:36:00;;;;;;;20.80;11.60;;;;;;;14.45;54.94;98777.52;105775;1279;97892;-69
2022/06/01 00:38:28;;;;;;;22.70;12.20;;;;;;;14.44;55.19;98771.52;105722;1278;111882;-69
2022/06/01 00:40:56;;;;;;;22.20;12.00;;;;;;;14.42;55.25;98774.75;105784;1278;97683;-69
2022/06/01 00:43:44;;;;;;;23.80;12.40;;;;;;;14.40;55.23;98770.46;105852;1279;107677;-68
2022/06/01 00:46:14;;;;;;;32.00;11.60;;;;;;;14.37;55.38;98770.55;105748;1278;97959;-70
2022/06/01 00:48:47;;;;;;;22.80;12.70;;;;;;;14.34;55.40;98767.25;105786;1279;98026;-69
2022/06/01 00:51:19;;;;;;;24.70;12.70;;;;;;;14.31;55.52;98757.20;105834;1278;111493;-70
2022/06/01 00:53:50;;;;;;;21.30;11.70;;;;;;;14.28;55.61;98752.15;105855;1279;97853;-71
2022/06/01 00:56:22;;;;;;;22.00;12.10;;;;;;;14.23;55.84;98747.23;105727;1279;107525;-69
2022/06/01 00:58:55;;;;;;;22.20;11.80;;;;;;;14.19;56.02;98748.20;105801;1278;97966;-68
2022/06/01 01:01:23;;;;;;;22.00;12.40;;;;;;;14.15;55.88;98745.35;105897;1278;97869;-69
2022/06/01 01:03:56;;;;;;;22.30;11.70;;;;;;;14.11;56.04;98745.69;105802;1279;112555;-68
2022/06/01 01:06:33;;;;;;;21.40;10.70;;;;;;;14.07;56.29;98744.77;105855;1279;97669;-69
2022/06/01 01:09:01;;;;;;;22.20;11.30;;;;;;;14.04;56.41;98750.61;105857;1278;107827;-68
2022/06/01 01:11:32;;;;;;;22.40;12.20;;;;;;;14.01;56.38;98747.48;105776;1279;97987;-69
2022/06/01 01:14:02;;;;;;;21.00;11.60;;;;;;;13.97;56.58;98750.13;105800;1279;97882;-68
2022/06/01 01:16:31;;;;;;;21.70;12.20;;;;;;;13.95;56.73;98755.11;105856;1278;113382;-69
2022/06/01 01:19:02;;;;;;;20.90;11.20;;;;;;;13.94;56.63;98755.08;105822;1278;95204;-69
2022/06/01 01:21:51;;;;;;;20.90;11.10;;;;;;;13.93;56.64;98754.48;105902;1279;107850;-69
2022/06/01 01:24:31;;;;;;;21.90;12.10;;;;;;;13.91;56.87;98755.72;105802;1278;97896;-70
2022/06/01 01:26:59;;;;;;;21.90;11.80;;;;;;;13.87;57.19;98753.89;105796;1279;97862;-69
2022/06/01 01:29:35;;;;;;;21.20;11.50;;;;;;;13.83;57.04;98760.48;105962;1278;111388;-70
2022/06/01 01:32:05;;;;;;;22.80;12.90;;;;;;;13.79;57.25;98758.05;105824;1279;99034;-69
2022/06/01 01:34:35;;;;;;;22.50;11.80;;;;;;;13.75;57.30;98757.55;105744;1279;107526;-67
2022/06/01 01:37:11;;;;;;;23.00;11.70;;;;;;;13.73;57.23;98758.23;105743;1278;97801;-68
2022/06/01 01:39:39;;;;;;;22.00;12.00;;;;;;;13.70;57.51;98756.86;105724;1279;98233;-66
2022/06/01 01:42:07;;;;;;;21.10;11.80;;;;;;;13.69;57.54;98758.91;105795;1279;112056;-67
2022/06/01 01:45:02;;;;;;;28.60;12.80;;;;;;;13.67;57.66;98757.66;105776;1278;97897;-68
2022/06/01 01:47:31;;;;;;;22.90;11.90;;;;;;;13.65;57.83;98760.72;105737;1280;107406;-68
2022/06/01 01:49:59;;;;;;;22.10;11.60;;;;;;;13.65;57.83;98761.27;105864;1279;97941;-68
2022/06/01 01:52:26;;;;;;;22.70;12.60;;;;;;;13.65;57.89;98758.78;105841;1278;97900;-67
2022/06/01 01:55:32;;;;;;;21.50;11.80;;;;;;;13.64;57.81;98754.25;105777;1278;111893;-70
2022/06/01 01:58:29;;;;;;;23.40;11.80;;;;;;;13.61;58.12;98757.70;105283;1280;98051;-68
2022/06/01 02:01:03;;;;;;;20.70;11.10;;;;;;;13.55;58.11;98756.41;105724;1279;108336;-69
2022/06/01 02:03:49;;;;;;;20.00;10.70;;;;;;;13.50;58.16;98759.18;105780;1278;98055;-68
2022/06/01 02:06:40;;;;;;;22.20;11.00;;;;;;;13.46;58.21;98759.73;105784;1278;97882;-69
2022/06/01 02:09:11;;;;;;;20.50;10.50;;;;;;;13.42;58.33;98759.02;105764;1278;112024;-69
2022/06/01 02:12:48;;;;;;;21.70;10.90;;;;;;;13.38;58.46;98756.66;105797;1278;95184;-69
2022/06/01 02:14:51;;;;;;;22.30;11.30;;;;;;;13.35;58.60;98753.56;105662;1278;108575;-68
2022/06/01 02:17:49;;;;;;;23.90;11.70;;;;;;;13.33;58.63;98756.98;105793;1278;97936;-68
2022/06/01 02:20:33;;;;;;;22.90;11.40;;;;;;;13.29;58.77;98752.14;105742;1279;95305;-68
2022/06/01 02:23:02;;;;;;;22.70;11.30;;;;;;;13.27;58.93;98754.80;105803;1278;110232;-68
2022/06/01 02:25:31;;;;;;;20.90;11.30;;;;;;;13.24;58.86;98753.58;105828;1279;97849;-68
2022/06/01 02:27:59;;;;;;;22.70;11.50;;;;;;;13.23;59.00;98748.59;105800;1279;107669;-69
2022/06/01 02:30:36;;;;;;;20.10;10.80;;;;;;;13.21;59.09;98748.33;105741;1279;97954;-68
2022/06/01 02:33:08;;;;;;;21.20;11.30;;;;;;;13.22;59.17;98747.79;105808;1279;95284;-68
2022/06/01 02:35:41;;;;;;;23.70;11.70;;;;;;;13.20;59.19;98745.05;105684;1280;111155;-68
2022/06/01 02:38:16;;;;;;;20.90;11.50;;;;;;;13.19;59.23;98744.48;105772;1279;97885;-68
2022/06/01 02:40:44;;;;;;;21.10;10.50;;;;;;;13.17;59.50;98749.43;105690;1278;107802;-70
2022/06/01 02:43:12;;;;;;;23.30;10.70;;;;;;;13.16;59.29;98750.62;105742;1279;99078;-68
2022/06/01 02:45:41;;;;;;;22.30;11.00;;;;;;;13.15;59.27;98750.71;105753;1278;97940;-69
2022/06/01 02:48:09;;;;;;;22.00;11.20;;;;;;;13.14;59.45;98748.11;105758;1278;110825;-68
2022/06/01 02:50:38;;;;;;;21.30;11.20;;;;;;;13.14;59.57;98754.93;105803;1279;95435;-67
2022/06/01 02:53:06;;;;;;;20.40;11.40;;;;;;;13.13;59.68;98750.67;105753;1279;107465;-67
2022/06/01 02:55:34;;;;;;;22.70;10.80;;;;;;;13.13;59.77;98745.56;105679;1279;97956;-68
2022/06/01 02:58:03;;;;;;;21.90;11.40;;;;;;;13.12;59.68;98737.95;105751;1278;97835;-68
2022/06/01 03:00:35;;;;;;;21.50;11.00;;;;;;;13.10;59.90;98732.43;105789;1278;111380;-68
2022/06/01 03:03:06;;;;;;;20.80;11.30;;;;;;;13.08;59.94;98735.09;105786;1279;97888;-69
2022/06/01 03:05:38;;;;;;;20.90;10.40;;;;;;;13.08;60.16;98737.41;105765;1278;107908;-68
2022/06/01 03:08:07;;;;;;;21.90;10.90;;;;;;;13.07;60.13;98737.48;105839;1277;97884;-68
2022/06/01 03:10:35;;;;;;;23.00;11.80;;;;;;;13.08;60.34;98741.85;105929;1278;97913;-68
2022/06/01 03:13:20;;;;;;;22.00;10.80;;;;;;;13.10;60.23;98741.48;105757;1278;113564;-68
2022/06/01 03:15:50;;;;;;;25.30;12.20;;;;;;;13.11;60.15;98746.41;105772;1278;97892;-69
2022/06/01 03:18:19;;;;;;;23.30;12.00;;;;;;;13.10;60.22;98754.10;105635;1280;107778;-68
2022/06/01 03:20:47;;;;;;;23.00;12.30;;;;;;;13.11;60.29;98754.80;105832;1279;97853;-68
2022/06/01 03:23:16;;;;;;;23.30;11.20;;;;;;;13.10;60.36;98751.32;105791;1278;98023;-68
2022/06/01 03:25:44;;;;;;;20.50;10.50;;;;;;;13.11;60.46;98745.73;105743;1278;111942;-69
2022/06/01 03:28:12;;;;;;;23.00;11.90;;;;;;;13.13;60.62;98736.77;105746;1279;96493;-66
2022/06/01 03:30:40;;;;;;;23.40;11.90;;;;;;;13.15;60.80;98736.77;105785;1277;107716;-69
2022/06/01 03:33:10;;;;;;;24.00;11.30;;;;;;;13.18;60.81;98737.40;105812;1278;98134;-68
2022/06/01 03:35:38;;;;;;;22.90;11.20;;;;;;;13.22;60.88;98733.52;105823;1277;97000;-68
2022/06/01 03:38:07;;;;;;;21.70;10.90;;;;;;;13.26;60.84;98732.62;105740;1279;111911;-68
2022/06/01 03:40:37;;;;;;;24.90;12.20;;;;;;;13.31;60.92;98729.50;105812;1279;98017;-68
2022/06/01 03:43:06;;;;;;;22.60;11.10;;;;;;;13.36;60.97;98734.04;105758;1278;107741;-68
2022/06/01 03:48:29;;;;;;;22.80;11.20;;;;;;;13.47;61.30;98732.37;105566;1278;297890;-69
2022/06/01 03:50:58;;;;;;;22.90;12.00;;;;;;;13.55;61.30;98730.58;105838;1278;112046;-67
2022/06/01 03:53:29;;;;;;;22.90;11.80;;;;;;;13.64;61.32;98729.30;105743;1278;97917;-68
2022/06/01 03:55:57;;;;;;;23.50;11.60;;;;;;;13.71;61.34;98732.00;105727;1277;108173;-69
2022/06/01 03:58:26;;;;;;;23.90;11.90;;;;;;;13.80;61.41;98735.69;105566;1278;96517;-69
2022/06/01 04:00:54;;;;;;;20.90;11.30;;;;;;;13.89;61.38;98736.59;105706;1278;97961;-69
2022/06/01 04:03:22;;;;;;;25.80;11.30;;;;;;;13.98;61.38;98733.71;105774;1277;111401;-68
2022/06/01 04:05:50;;;;;;;21.10;10.20;;;;;;;14.08;61.40;98736.66;105641;1277;96622;-69
2022/06/01 04:08:20;;;;;;;21.70;10.40;;;;;;;14.18;61.57;98733.44;105638;1277;108429;-69
2022/06/01 04:10:49;;;;;;;24.30;11.20;;;;;;;14.29;61.61;98731.70;105675;1277;97920;-68
2022/06/01 04:13:17;;;;;;;24.20;11.40;;;;;;;14.38;61.60;98727.96;105788;1278;95278;-69
2022/06/01 04:15:45;;;;;;;25.20;11.70;;;;;;;14.49;61.58;98735.40;105654;1277;111529;-68
2022/06/01 04:18:13;;;;;;;24.60;11.80;;;;;;;14.58;61.57;98737.40;105693;1277;97709;-69
2022/06/01 04:20:42;;;;;;;25.80;12.20;;;;;;;14.66;61.62;98736.81;105692;1277;108471;-68
2022/06/01 04:23:11;;;;;;;22.00;11.40;;;;;;;14.75;61.64;98733.19;105841;1276;96556;-69
2022/06/01 04:25:39;;;;;;;23.50;11.90;;;;;;;14.83;61.70;98729.69;105740;1277;97893;-68
2022/06/01 04:28:07;;;;;;;23.50;12.20;;;;;;;14.92;61.75;98726.94;105869;1277;111716;-68
2022/06/01 04:30:35;;;;;;;25.30;11.50;;;;;;;14.98;61.67;98728.98;105963;1278;97966;-71
2022/06/01 04:33:04;;;;;;;29.90;12.50;;;;;;;15.06;61.70;98728.80;105889;1281;108388;-70
2022/06/01 04:35:33;;;;;;;25.40;12.00;;;;;;;15.12;61.64;98726.55;105867;1279;98754;-70
2022/06/01 04:38:13;;;;;;;24.50;12.40;;;;;;;15.18;61.75;98733.10;105937;1278;95231;-70
2022/06/01 04:40:51;;;;;;;24.70;12.50;;;;;;;15.25;61.71;98737.14;105869;1280;112025;-71
2022/06/01 04:43:21;;;;;;;24.00;11.80;;;;;;;15.30;61.69;98734.45;105896;1278;97886;-69
2022/06/01 04:45:56;;;;;;;24.90;11.40;;;;;;;15.35;61.78;98741.30;105883;1277;108753;-68
2022/06/01 04:48:25;;;;;;;24.20;11.80;;;;;;;15.40;61.69;98749.20;105829;1277;97955;-68
2022/06/01 04:50:56;;;;;;;24.80;11.20;;;;;;;15.44;61.70;98752.95;105824;1277;97913;-68
2022/06/01 04:53:25;;;;;;;25.30;11.10;;;;;;;15.50;61.73;98753.66;105866;1278;111825;-68
2022/06/01 04:55:53;;;;;;;25.40;11.70;;;;;;;15.54;61.68;98750.36;105883;1277;97935;-67
2022/06/01 04:58:22;;;;;;;27.50;11.10;;;;;;;15.61;61.76;98748.50;105850;1278;108147;-67
2022/06/01 05:00:50;;;;;;;24.40;12.20;;;;;;;15.67;61.72;98747.91;105840;1279;97894;-68
2022/06/01 05:03:19;;;;;;;23.60;12.00;;;;;;;15.72;61.76;98750.04;105976;1278;97918;-68
2022/06/01 05:05:47;;;;;;;26.30;13.80;;;;;;;15.77;61.72;98754.21;105945;1277;111234;-68
2022/06/01 05:08:16;;;;;;;25.10;11.40;;;;;;;15.82;61.82;98745.48;105948;1280;96250;-67
2022/06/01 05:10:44;;;;;;;24.30;11.70;;;;;;;15.90;61.83;98741.69;105839;1281;108414;-69
2022/06/01 05:13:16;;;;;;;24.20;11.50;;;;;;;15.98;61.78;98741.48;105786;1277;95303;-69
2022/06/01 05:15:56;;;;;;;25.70;12.00;;;;;;;16.06;61.76;98738.81;105796;1277;97915;-68
2022/06/01 05:18:25;;;;;;;23.70;11.30;;;;;;;16.19;61.87;98737.02;105785;1279;112062;-68
2022/06/01 05:20:54;;;;;;;24.70;12.50;;;;;;;16.31;61.74;98739.20;105814;1278;97699;-68
2022/06/01 05:23:24;;;;;;;24.40;12.40;;;;;;;16.43;61.82;98740.02;105782;1279;108321;-69
2022/06/01 05:25:55;;;;;;;23.80;11.70;;;;;;;16.51;61.81;98746.64;105807;1281;95258;-69
2022/06/01 05:28:26;;;;;;;25.50;11.40;;;;;;;16.58;61.73;98755.08;105848;1278;96612;-69
2022/06/01 05:30:59;;;;;;;27.90;12.40;;;;;;;16.65;61.67;98758.24;105776;1279;112084;-69
2022/06/01 05:33:27;;;;;;;28.70;12.00;;;;;;;16.76;61.81;98763.06;105879;1281;97908;-69
2022/06/01 05:35:56;;;;;;;28.30;12.10;;;;;;;16.89;61.70;98754.45;105799;1280;108415;-68
2022/06/01 05:38:24;;;;;;;24.90;11.20;;;;;;;17.01;61.84;98751.79;105861;1277;98005;-68
2022/06/01 05:40:53;;;;;;;27.70;12.20;;;;;;;17.13;61.63;98748.41;105874;1278;97888;-69
2022/06/01 05:43:22;;;;;;;26.20;12.00;;;;;;;17.21;61.67;98751.23;105857;1278;111384;-68
2022/06/01 05:45:50;;;;;;;27.00;11.70;;;;;;;17.28;61.77;98750.22;105859;1279;97894;-67
2022/06/01 05:48:20;;;;;;;29.90;12.50;;;;;;;17.33;61.76;98752.04;105809;1278;108221;-68
2022/06/01 05:50:52;;;;;;;25.10;11.90;;;;;;;17.37;61.65;98760.73;105847;1280;98018;-69
2022/06/01 05:53:20;;;;;;;27.40;11.30;;;;;;;17.41;61.74;98758.48;106047;1277;97880;-69
2022/06/01 05:55:49;;;;;;;24.40;11.90;;;;;;;17.46;61.69;98759.98;105862;1277;111405;-68
2022/06/01 05:58:23;;;;;;;22.10;10.80;;;;;;;17.50;61.68;98766.31;105835;1281;97960;-68
2022/06/01 06:00:53;;;;;;;22.30;11.10;;;;;;;17.58;61.75;98768.04;105712;1277;108193;-67
2022/06/01 06:03:26;;;;;;;23.30;11.60;;;;;;;17.71;61.56;98765.41;105852;1280;97928;-69
2022/06/01 06:06:13;;;;;;;23.60;11.10;;;;;;;17.85;61.64;98765.29;105974;1277;95178;-68
2022/06/01 06:08:55;;;;;;;23.20;10.00;;;;;;;17.97;61.64;98764.16;105767;1278;111355;-69
2022/06/01 06:11:31;;;;;;;23.60;11.20;;;;;;;18.05;61.74;98770.02;105812;1281;98667;-68
2022/06/01 06:14:02;;;;;;;22.10;10.90;;;;;;;18.10;61.81;98770.23;105777;1279;108348;-69
2022/06/01 06:16:38;;;;;;;24.80;11.90;;;;;;;18.14;61.61;98770.07;105895;1280;97889;-69
2022/06/01 06:19:05;;;;;;;24.90;11.10;;;;;;;18.18;61.63;98770.55;105858;1277;97776;-66
2022/06/01 06:21:33;;;;;;;23.20;11.40;;;;;;;18.20;61.47;98771.08;105776;1281;111633;-71
2022/06/01 06:24:07;;;;;;;24.90;11.10;;;;;;;18.23;61.49;98775.59;105761;1277;96543;-68
2022/06/01 06:26:36;;;;;;;22.00;11.00;;;;;;;18.28;61.44;98780.20;105835;1278;107753;-69
2022/06/01 06:29:08;;;;;;;23.60;11.40;;;;;;;18.33;61.50;98781.17;105844;1278;97967;-69
2022/06/01 06:31:40;;;;;;;23.20;11.40;;;;;;;18.36;61.29;98775.75;105767;1278;97849;-68
2022/06/01 06:34:18;;;;;;;24.10;10.60;;;;;;;18.38;61.25;98779.65;105940;1277;112108;-68
2022/06/01 06:36:46;;;;;;;23.30;10.70;;;;;;;18.39;61.22;98780.52;105916;1277;98463;-68
2022/06/01 06:39:16;;;;;;;21.70;11.00;;;;;;;18.39;61.42;98776.36;105827;1277;109660;-68
2022/06/01 06:41:46;;;;;;;26.30;12.00;;;;;;;18.40;61.42;98775.52;105770;1278;97902;-69
2022/06/01 06:44:15;;;;;;;22.50;11.90;;;;;;;18.40;61.35;98776.76;105830;1277;96371;-68
2022/06/01 06:46:45;;;;;;;23.70;10.80;;;;;;;18.41;61.34;98777.35;105628;1277;111977;-68
2022/06/01 06:49:15;;;;;;;25.70;11.10;;;;;;;18.41;61.15;98778.64;105792;1277;97974;-69
2022/06/01 06:51:46;;;;;;;25.20;11.90;;;;;;;18.43;61.23;98783.45;105863;1279;107266;-70
2022/06/01 06:54:14;;;;;;;25.10;12.00;;;;;;;18.47;61.30;98782.17;105946;1277;97947;-69
2022/06/01 06:56:44;;;;;;;32.10;11.90;;;;;;;18.52;61.18;98779.08;105809;1277;97883;-69
2022/06/01 06:59:15;;;;;;;28.30;11.50;;;;;;;18.60;61.30;98778.59;105781;1277;110835;-68
2022/06/01 07:01:43;;;;;;;22.10;11.30;;;;;;;18.81;61.07;98773.11;105873;1277;96422;-71
2022/06/01 07:04:12;;;;;;;25.60;12.60;;;;;;;18.98;61.03;98774.35;105825;1277;108383;-70
2022/06/01 07:06:42;;;;;;;24.30;11.30;;;;;;;19.07;61.18;98770.35;105820;1280;97960;-69
2022/06/01 07:09:13;;;;;;;25.20;12.30;;;;;;;19.15;61.13;98762.61;105766;1277;97893;-69
2022/06/01 07:11:42;;;;;;;23.40;11.60;;;;;;;19.26;61.07;98757.43;105847;1277;110122;-68
2022/06/01 07:14:11;;;;;;;23.60;11.20;;;;;;;19.41;61.04;98757.87;105891;1278;97820;-68
2022/06/01 07:16:39;;;;;;;28.10;12.90;;;;;;;19.61;60.95;98762.71;105863;1277;108459;-67
2022/06/01 07:19:10;;;;;;;26.00;11.60;;;;;;;19.72;60.93;98763.62;105732;1277;97886;-69
2022/06/01 07:21:38;;;;;;;24.20;11.30;;;;;;;19.79;60.92;98764.48;105782;1279;98013;-72
2022/06/01 07:24:10;;;;;;;25.20;11.20;;;;;;;19.85;60.88;98768.50;105738;1279;111405;-68
2022/06/01 07:26:44;;;;;;;23.00;11.70;;;;;;;19.87;60.72;98771.99;105755;1279;97763;-69
2022/06/01 07:29:15;;;;;;;25.10;12.60;;;;;;;19.89;60.78;98773.09;105730;1277;107752;-68
2022/06/01 07:31:43;;;;;;;26.80;12.50;;;;;;;19.85;60.71;98769.84;105784;1277;97982;-70
2022/06/01 07:34:14;;;;;;;23.80;11.90;;;;;;;19.80;60.84;98767.08;105870;1277;97883;-69
2022/06/01 07:36:48;;;;;;;23.80;12.50;;;;;;;19.80;60.79;98768.98;105825;1277;111981;-68
2022/06/01 07:44:53;;;;;;;24.40;10.20;;;;;;;20.83;59.83;98784.55;105740;1277;98037;-68
2022/06/01 07:47:24;;;;;;;20.60;10.20;;;;;;;21.05;59.86;98783.62;105783;1277;96040;-71
2022/06/01 07:50:16;;;;;;;21.70;9.70;;;;;;;21.04;59.78;98782.09;105823;1279;111169;-68
2022/06/01 07:53:11;;;;;;;19.80;9.10;;;;;;;21.91;59.08;98782.39;105850;1279;97896;-68
2022/06/01 07:55:41;;;;;;;19.50;9.10;;;;;;;22.94;58.54;98779.64;105736;1277;108446;-69
2022/06/01 07:58:10;;;;;;;19.70;8.70;;;;;;;23.67;58.47;98776.80;105756;1277;98005;-69
2022/06/01 08:00:38;;;;;;;18.50;9.10;;;;;;;23.92;58.78;98771.30;105792;1276;97979;-69
2022/06/01 08:03:17;;;;;;;22.20;9.30;;;;;;;23.59;58.94;98784.08;105723;1279;112087;-69
2022/06/01 08:05:45;;;;;;;18.80;8.70;;;;;;;23.36;59.16;98785.95;105778;1279;97885;-68
2022/06/01 08:08:16;;;;;;;17.40;7.60;;;;;;;23.59;58.96;98793.61;105640;1277;107455;-70
2022/06/01 08:10:44;;;;;;;19.00;6.90;;;;;;;24.17;58.22;98793.74;105817;1277;97800;-69
2022/06/01 08:13:14;;;;;;;17.10;7.50;;;;;;;25.17;58.01;98796.23;105796;1277;97954;-68
2022/06/01 08:15:47;;;;;;;18.20;6.50;;;;;;;26.02;57.37;98798.04;105738;1277;112676;-69
2022/06/01 08:18:21;;;;;;;13.80;5.40;;;;;;;26.30;57.33;98799.29;105689;1277;97992;-68
2022/06/01 08:20:53;;;;;;;11.10;5.20;;;;;;;26.67;57.18;98799.70;105790;1276;108281;-69
2022/06/01 08:23:27;;;;;;;14.90;5.50;;;;;;;27.45;56.58;98799.98;105788;1277;97890;-68
2022/06/01 08:25:55;;;;;;;14.40;5.90;;;;;;;28.07;56.28;98800.61;105841;1279;95579;-68
2022/06/01 08:28:27;;;;;;;13.10;5.50;;;;;;;28.14;56.11;98806.02;105815;1277;112094;-68
2022/06/01 08:30:54;;;;;;;11.90;4.90;;;;;;;27.40;55.88;98808.05;105795;1278;98367;-69
2022/06/01 08:33:25;;;;;;;21.10;4.90;;;;;;;26.78;56.19;98815.56;105891;1277;107772;-68
2022/06/01 08:35:53;;;;;;;11.50;4.90;;;;;;;26.28;55.79;98816.70;105877;1277;98581;-69
2022/06/01 08:38:21;;;;;;;11.20;4.50;;;;;;;25.87;55.63;98818.52;105937;1277;95962;-68
2022/06/01 08:40:55;;;;;;;9.90;4.50;;;;;;;25.43;55.13;98817.58;106002;1279;111258;-70
2022/06/01 08:43:36;;;;;;;13.50;6.10;;;;;;;25.19;55.09;98815.63;105868;1279;98264;-69
2022/06/01 08:46:05;;;;;;;11.80;4.50;;;;;;;25.22;54.79;98814.87;105749;1279;108472;-69
2022/06/01 08:48:52;;;;;;;11.70;4.90;;;;;;;24.99;54.31;98812.86;105688;1279;95294;-68
2022/06/01 08:51:24;;;;;;;11.20;4.80;;;;;;;24.63;54.11;98813.08;105905;1279;97893;-67
2022/06/01 08:54:01;;;;;;;9.00;4.30;;;;;;;24.22;53.85;98813.42;105807;1279;111522;-68
2022/06/01 08:56:44;;;;;;;8.10;3.70;;;;;;;23.90;53.67;98811.38;105741;1279;97916;-67
2022/06/01 08:59:50;;;;;;;9.20;4.30;;;;;;;23.63;53.39;98815.30;105714;1279;106942;-68
2022/06/01 09:02:56;;;;;;;7.60;4.00;;;;;;;23.33;53.03;98818.08;105727;1279;96315;-69
2022/06/01 09:05:36;;;;;;;8.70;3.60;;;;;;;22.92;52.93;98824.52;105754;1279;98673;-69
2022/06/01 09:08:23;;;;;;;8.40;3.90;;;;;;;22.69;52.80;98828.16;105751;1279;111485;-69
2022/06/01 09:11:15;;;;;;;11.60;4.60;;;;;;;22.47;52.53;98831.83;105650;1279;97928;-68
2022/06/01 09:14:14;;;;;;;7.00;3.20;;;;;;;22.25;52.42;98838.20;105663;1279;107821;-68
2022/06/01 09:16:48;;;;;;;6.30;3.10;;;;;;;22.06;52.09;98844.30;105507;1279;96506;-69
2022/06/01 09:22:37;;;;;;;8.90;3.30;;;;;;;21.86;52.06;98846.48;105745;1279;95222;-68
2022/06/01 09:22:37;;;;;;;9.40;4.00;;;;;;;21.60;52.16;98851.36;105716;1280;111102;-69
2022/06/01 09:25:19;;;;;;;8.00;3.50;;;;;;;21.46;51.98;98851.84;105675;1279;97993;-69
2022/06/01 09:27:59;;;;;;;6.20;3.50;;;;;;;21.39;51.83;98853.91;105698;1279;107696;-69
2022/06/01 09:30:37;;;;;;;9.00;3.30;;;;;;;21.32;51.58;98853.59;105761;1279;97979;-68
2022/06/01 09:33:19;;;;;;;9.10;3.30;;;;;;;21.22;51.50;98857.92;105658;1281;97880;-69
2022/06/01 09:36:24;;;;;;;11.50;3.60;;;;;;;21.16;51.45;98857.12;105708;1279;111192;-69
2022/06/01 09:39:01;;;;;;;9.90;3.70;;;;;;;21.11;51.53;98862.75;105724;1279;97917;-69
2022/06/01 09:41:40;;;;;;;8.80;3.30;;;;;;;21.08;51.61;98864.70;105757;1279;108643;-66
2022/06/01 09:44:18;;;;;;;9.40;3.40;;;;;;;21.07;51.30;98867.72;105631;1279;98009;-69
2022/06/01 09:46:46;;;;;;;8.70;3.20;;;;;;;21.03;51.34;98868.83;105730;1279;98013;-68
2022/06/01 09:49:25;;;;;;;7.30;3.40;;;;;;;20.98;51.34;98870.00;105720;1279;113399;-69
2022/06/01 09:52:10;;;;;;;7.40;3.30;;;;;;;20.95;51.32;98869.77;105676;1279;97921;-68
2022/06/01 09:54:52;;;;;;;9.60;4.00;;;;;;;20.91;51.20;98866.83;105828;1281;107802;-68
2022/06/01 09:57:37;;;;;;;6.60;3.10;;;;;;;20.87;51.23;98866.99;105750;1279;98001;-68
2022/06/01 10:06:27;;;;;;;11.00;3.60;;;;;;;20.73;51.07;98864.81;105779;1279;98023;-69
2022/06/01 10:09:14;;;;;;;8.00;3.40;;;;;;;20.72;51.05;98864.44;105650;1279;107184;-68
2022/06/01 10:11:46;;;;;;;8.50;3.60;;;;;;;20.69;51.14;98868.35;105625;1279;95367;-68
2022/06/01 10:14:22;;;;;;;8.30;3.60;;;;;;;20.65;50.93;98866.46;105611;1279;98678;-68
2022/06/01 10:17:06;;;;;;;7.40;3.20;;;;;;;20.57;51.00;98870.31;105763;1281;112158;-69
2022/06/01 10:19:44;;;;;;;8.60;3.60;;;;;;;20.54;50.92;98869.63;105770;1279;97896;-70
2022/06/01 10:22:30;;;;;;;13.30;4.00;;;;;;;20.49;50.93;98871.72;105687;1279;107740;-70
2022/06/01 10:25:17;;;;;;;6.10;3.60;;;;;;;20.47;50.89;98873.63;105713;1279;97925;-70
2022/06/01 10:27:56;;;;;;;8.30;3.50;;;;;;;20.55;51.06;98872.65;105677;1279;97909;-69
2022/06/01 10:30:35;;;;;;;8.20;3.30;;;;;;;20.70;50.85;98874.55;105670;1279;110965;-69
2022/06/01 10:33:10;;;;;;;6.60;3.50;;;;;;;20.88;50.85;98872.81;105767;1279;97958;-69
2022/06/01 10:35:52;;;;;;;7.70;3.30;;;;;;;21.03;51.05;98873.45;105629;1279;108424;-69
2022/06/01 10:38:30;;;;;;;10.80;3.60;;;;;;;21.17;50.98;98867.63;105804;1279;98525;-69
2022/06/01 10:41:11;;;;;;;8.10;3.50;;;;;;;21.31;51.17;98869.20;105803;1279;97960;-70
2022/06/01 10:43:55;;;;;;;5.80;3.20;;;;;;;21.48;51.23;98865.52;105809;1279;111559;-69
2022/06/01 10:46:22;;;;;;;8.00;3.50;;;;;;;21.64;51.11;98865.20;105843;1277;95977;-69
2022/06/01 10:49:15;;;;;;;11.90;4.10;;;;;;;21.77;51.15;98862.74;105899;1276;107762;-69
2022/06/01 10:51:51;;;;;;;9.30;3.80;;;;;;;21.90;51.06;98860.20;105897;1277;97887;-69
2022/06/01 10:54:27;;;;;;;9.30;4.00;;;;;;;21.98;50.67;98858.10;105899;1277;97870;-68
2022/06/01 10:56:56;;;;;;;8.60;4.00;;;;;;;22.11;50.83;98860.23;105698;1277;111660;-70
2022/06/01 10:59:26;;;;;;;10.00;4.20;;;;;;;22.24;50.75;98860.06;105880;1276;96517;-70
2022/06/01 11:02:09;;;;;;;9.50;4.40;;;;;;;22.31;50.77;98858.19;105807;1278;105717;-69
2022/06/01 11:05:09;;;;;;;8.90;4.10;;;;;;;22.35;50.43;98864.77;105858;1276;95299;-69
2022/06/01 11:07:47;;;;;;;10.80;4.40;;;;;;;22.40;50.57;98858.66;105879;1277;97963;-70
2022/06/01 11:10:46;;;;;;;12.60;5.40;;;;;;;22.44;50.52;98865.09;105824;1277;111441;-70
2022/06/01 11:13:38;;;;;;;11.90;4.80;;;;;;;22.48;50.68;98863.08;105805;1279;99163;-69
2022/06/01 11:16:28;;;;;;;10.60;5.10;;;;;;;22.54;50.63;98857.93;105775;1277;106672;-69
2022/06/01 11:19:08;;;;;;;12.80;4.70;;;;;;;22.57;50.48;98854.80;105825;1276;97945;-69
2022/06/01 11:21:51;;;;;;;12.90;6.20;;;;;;;22.61;50.45;98857.40;105809;1279;98647;-69
2022/06/01 11:24:28;;;;;;;;;;;;;;;22.65;50.31;98851.60;105861;1277;110957;-70
2022/06/01 11:27:11;;;;;;;12.90;5.60;;;;;;;22.67;50.58;98857.16;105764;1278;97904;-70
2022/06/01 11:30:16;;;;;;;14.60;5.60;;;;;;;22.70;50.41;98853.90;105807;1276;106824;-69
2022/06/01 11:32:56;;;;;;;15.80;5.40;;;;;;;22.81;50.15;98849.48;105812;1277;97987;-69
2022/06/01 11:35:33;;;;;;;12.90;5.60;;;;;;;22.92;50.24;98848.39;105807;1277;97862;-69
2022/06/01 11:38:24;;;;;;;12.00;5.00;;;;;;;23.02;49.98;98846.58;105797;1277;112143;-69
2022/06/01 11:41:09;;;;;;;14.90;5.90;;;;;;;23.07;49.84;98840.92;105858;1277;98287;-69
2022/06/01 11:43:49;;;;;;;16.80;5.60;;;;;;;23.09;50.25;98836.70;105815;1278;107507;-70
2022/06/01 11:46:42;;;;;;;13.70;5.90;;;;;;;23.08;50.07;98836.27;105994;1276;97743;-69
2022/06/01 11:49:14;;;;;;;11.50;5.00;;;;;;;23.14;49.99;98843.20;105927;1279;99035;-68
2022/06/01 11:51:51;;;;;;;13.30;5.60;;;;;;;23.19;49.92;98846.23;105790;1277;112041;-68
2022/06/01 11:54:36;;;;;;;13.10;5.30;;;;;;;23.25;49.67;98851.10;105876;1277;97896;-70
2022/06/01 11:57:26;;;;;;;12.10;5.40;;;;;;;23.31;49.80;98848.84;105944;1276;107821;-69